Terminal Aerodrome Forecast
Issued by NWS

Home | Current Version | Previous Version | Text Only | Print | Product List | Glossary On
Versions: 1 2 3 4 5 6 7 8 9 10 11 12 13 14 15 16 17 18 19
000
FTUS43 KDLH 150541
TAFHYR
TAF
KHYR 150541Z 1506/1606 22005KT P6SM SKC
     FM151400 29005KT P6SM VCSH OVC015
     FM151600 33006KT 5SM -SN BKN012
     FM151900 33008KT 6SM -SN BKN015
     FM152300 35009G16KT P6SM BKN024
     FM160100 34007KT P6SM BKN045=

USA.gov is the U.S. government's official web portal to all federal, state and local government web resources and services.